Station Historical Data
Daily Summary for September 23, 2017 Units:  English    Metric   Both
Next Day »
Daily Weekly Monthly Yearly Custom
  High: Low: Average:
Temperature: 69.3 °F 46.1 °F 56.8 °F
Dew Point: 35.7 °F 28.7 °F 32.5 °F
Humidity: 58% 23% 41%
Wind Speed: 12.0mph 0.0mph 1.9mph
Wind Gust: 24.0mph - -
Wind- - SE
Pressure: 29.95 in 29.90 in -
Precipitation: 0.00 in    
Historical Graphs
 
 
Tabular Data for September 23, 2017
Time Temperature Dew Point Pressure Wind Wind Speed Wind Gust Humidity Rainfall Rate (Hourly) solar Conditions
00:00 48.3 °F 34.2 °F 29.94 in Calm     58% 0.00 in 0.00 W/m2
00:05 48.3 °F 33.8 °F 29.94 in NE 6.0 mph 7.0 mph 57% 0.00 in 0.00 W/m2
00:07 48.3 °F 33.3 °F 29.94 in Calm   6.0 mph 56% 0.00 in 0.00 W/m2
00:12 48.3 °F 33.8 °F 29.94 in NE 2.0 mph 7.0 mph 57% 0.00 in 0.00 W/m2
00:17 48.3 °F 33.3 °F 29.94 in Calm   5.0 mph 56% 0.00 in 0.00 W/m2
00:22 48.4 °F 33.9 °F 29.95 in Calm   8.0 mph 57% 0.00 in 0.00 W/m2
00:27 48.4 °F 33.4 °F 29.94 in Calm   7.0 mph 56% 0.00 in 0.00 W/m2
00:32 48.4 °F 33.4 °F 29.94 in NE 2.0 mph 7.0 mph 56% 0.00 in 0.00 W/m2
00:37 48.3 °F 33.8 °F 29.94 in Calm   3.0 mph 57% 0.00 in 0.00 W/m2
00:42 48.3 °F 33.3 °F 29.95 in Calm   7.0 mph 56% 0.00 in 0.00 W/m2
00:47 48.3 °F 32.4 °F 29.94 in Calm     54% 0.00 in 0.00 W/m2
00:52 48.3 °F 32.0 °F 29.94 in Calm   7.0 mph 53% 0.00 in 0.00 W/m2
00:57 48.3 °F 32.4 °F 29.94 in NE 8.0 mph 10.0 mph 54% 0.00 in 0.00 W/m2
01:02 48.4 °F 32.5 °F 29.94 in Calm   7.0 mph 54% 0.00 in 0.00 W/m2
01:07 48.3 °F 32.0 °F 29.94 in NE 3.0 mph 7.0 mph 53% 0.00 in 0.00 W/m2
01:12 48.4 °F 31.6 °F 29.94 in Calm   10.0 mph 52% 0.00 in 0.00 W/m2
01:17 48.4 °F 32.5 °F 29.94 in NE 1.0 mph 7.0 mph 54% 0.00 in 0.00 W/m2
01:22 48.5 °F 32.2 °F 29.94 in ENE 6.0 mph 8.0 mph 53% 0.00 in 0.00 W/m2
01:27 48.5 °F 32.6 °F 29.94 in Calm   7.0 mph 54% 0.00 in 0.00 W/m2
01:32 48.5 °F 31.7 °F 29.94 in Calm   7.0 mph 52% 0.00 in 0.00 W/m2
01:37 48.5 °F 31.7 °F 29.94 in Calm   4.0 mph 52% 0.00 in 0.00 W/m2
01:42 48.6 °F 31.8 °F 29.94 in Calm   3.0 mph 52% 0.00 in 0.00 W/m2
01:47 48.7 °F 31.9 °F 29.94 in Calm     52% 0.00 in 0.00 W/m2
01:52 48.8 °F 31.5 °F 29.94 in Calm     51% 0.00 in 0.00 W/m2
01:57 48.8 °F 31.5 °F 29.94 in Calm   4.0 mph 51% 0.00 in 0.00 W/m2
02:02 48.8 °F 32.0 °F 29.93 in Calm   1.0 mph 52% 0.00 in 0.00 W/m2
02:07 48.8 °F 31.0 °F 29.93 in NE 3.0 mph 3.0 mph 50% 0.00 in 0.00 W/m2
02:12 48.7 °F 30.9 °F 29.93 in NE 2.0 mph 2.0 mph 50% 0.00 in 0.00 W/m2
02:17 48.6 °F 30.8 °F 29.93 in Calm   6.0 mph 50% 0.00 in 0.00 W/m2
02:22 48.5 °F 30.7 °F 29.93 in Calm   4.0 mph 50% 0.00 in 0.00 W/m2
02:28 48.5 °F 31.2 °F 29.93 in Calm   3.0 mph 51% 0.00 in 0.00 W/m2
02:33 48.4 °F 31.6 °F 29.93 in Calm   3.0 mph 52% 0.00 in 0.00 W/m2
02:38 48.3 °F 31.5 °F 29.93 in Calm   4.0 mph 52% 0.00 in 0.00 W/m2
02:43 48.3 °F 31.0 °F 29.93 in NE 4.0 mph 6.0 mph 51% 0.00 in 0.00 W/m2
02:48 48.2 °F 30.9 °F 29.93 in Calm   5.0 mph 51% 0.00 in 0.00 W/m2
02:53 48.2 °F 31.4 °F 29.93 in NE 3.0 mph 5.0 mph 52% 0.00 in 0.00 W/m2
02:58 48.2 °F 30.9 °F 29.93 in Calm   3.0 mph 51% 0.00 in 0.00 W/m2
03:03 48.1 °F 30.8 °F 29.92 in Calm     51% 0.00 in 0.00 W/m2
03:08 48.1 °F 30.8 °F 29.92 in Calm   8.0 mph 51% 0.00 in 0.00 W/m2
03:13 48.1 °F 31.3 °F 29.92 in NNE 3.0 mph 7.0 mph 52% 0.00 in 0.00 W/m2
03:18 48.0 °F 31.2 °F 29.92 in NNE 5.0 mph 6.0 mph 52% 0.00 in 0.00 W/m2
03:23 48.0 °F 31.2 °F 29.92 in Calm   7.0 mph 52% 0.00 in 0.00 W/m2
03:28 48.1 °F 31.3 °F 29.92 in Calm   9.0 mph 52% 0.00 in 0.00 W/m2
03:33 48.1 °F 31.3 °F 29.92 in NNE 5.0 mph 5.0 mph 52% 0.00 in 0.00 W/m2
03:38 48.0 °F 31.2 °F 29.92 in NNE 2.0 mph 6.0 mph 52% 0.00 in 0.00 W/m2
03:43 48.0 °F 31.2 °F 29.92 in Calm   5.0 mph 52% 0.00 in 0.00 W/m2
03:48 48.0 °F 31.2 °F 29.92 in Calm   5.0 mph 52% 0.00 in 0.00 W/m2
03:53 47.9 °F 31.6 °F 29.92 in Calm   3.0 mph 53% 0.00 in 0.00 W/m2
03:58 47.8 °F 31.0 °F 29.92 in Calm   3.0 mph 52% 0.00 in 0.00 W/m2
04:03 47.7 °F 31.4 °F 29.92 in Calm     53% 0.00 in 0.00 W/m2
04:08 47.6 °F 31.3 °F 29.91 in NNE 1.0 mph 6.0 mph 53% 0.00 in 0.00 W/m2
04:13 47.5 °F 31.2 °F 29.91 in Calm     53% 0.00 in 0.00 W/m2
04:18 47.3 °F 31.0 °F 29.91 in Calm     53% 0.00 in 0.00 W/m2
04:23 47.2 °F 31.0 °F 29.91 in Calm     53% 0.00 in 0.00 W/m2
04:28 47.0 °F 30.8 °F 29.91 in Calm   7.0 mph 53% 0.00 in 0.00 W/m2
04:33 46.8 °F 31.5 °F 29.91 in Calm   7.0 mph 55% 0.00 in 0.00 W/m2
04:38 46.5 °F 31.2 °F 29.91 in East 7.0 mph 8.0 mph 55% 0.00 in 0.00 W/m2
04:43 46.4 °F 31.1 °F 29.91 in East 5.0 mph 6.0 mph 55% 0.00 in 0.00 W/m2
04:48 46.3 °F 31.0 °F 29.91 in Calm   12.0 mph 55% 0.00 in 0.00 W/m2
04:53 46.2 °F 31.4 °F 29.91 in Calm   6.0 mph 56% 0.00 in 0.00 W/m2
04:58 46.1 °F 31.3 °F 29.91 in Calm   3.0 mph 56% 0.00 in 0.00 W/m2
05:03 46.1 °F 31.7 °F 29.91 in Calm   5.0 mph 57% 0.00 in 0.00 W/m2
05:08 46.1 °F 31.3 °F 29.91 in Calm   6.0 mph 56% 0.00 in 0.00 W/m2
05:09 46.2 °F 31.4 °F 29.91 in Calm   6.0 mph 56% 0.00 in 0.00 W/m2
05:14 46.2 °F 31.4 °F 29.91 in Calm   11.0 mph 56% 0.00 in 0.00 W/m2
05:19 46.3 °F 31.5 °F 29.90 in East 9.0 mph 9.0 mph 56% 0.00 in 0.00 W/m2
05:24 46.4 °F 32.0 °F 29.91 in Calm   7.0 mph 57% 0.00 in 0.00 W/m2
05:29 46.5 °F 32.1 °F 29.91 in East 1.0 mph 11.0 mph 57% 0.00 in 0.00 W/m2
05:34 46.7 °F 32.3 °F 29.91 in East 1.0 mph 16.0 mph 57% 0.00 in 0.00 W/m2
05:39 46.9 °F 32.5 °F 29.91 in East 4.0 mph 8.0 mph 57% 0.00 in 0.00 W/m2
05:44 47.1 °F 32.2 °F 29.91 in Calm   5.0 mph 56% 0.00 in 0.00 W/m2
05:49 47.2 °F 31.9 °F 29.91 in East 2.0 mph 10.0 mph 55% 0.00 in 0.00 W/m2
05:54 47.3 °F 32.4 °F 29.91 in East 1.0 mph 5.0 mph 56% 0.00 in 0.00 W/m2
05:59 47.4 °F 32.5 °F 29.92 in ESE 4.0 mph 9.0 mph 56% 0.00 in 0.00 W/m2
06:04 47.4 °F 33.0 °F 29.92 in Calm   6.0 mph 57% 0.00 in 0.00 W/m2
06:09 47.5 °F 32.6 °F 29.92 in Calm   5.0 mph 56% 0.00 in 0.00 W/m2
06:14 47.6 °F 33.1 °F 29.92 in East 4.0 mph 7.0 mph 57% 0.00 in 0.00 W/m2
06:19 47.7 °F 31.9 °F 29.92 in East 2.0 mph 10.0 mph 54% 0.00 in 0.00 W/m2
06:24 47.8 °F 32.0 °F 29.92 in East 1.0 mph 7.0 mph 54% 0.00 in 0.00 W/m2
06:29 47.9 °F 31.6 °F 29.92 in East 2.0 mph 9.0 mph 53% 0.00 in 0.00 W/m2
06:34 48.1 °F 32.3 °F 29.92 in Calm   8.0 mph 54% 0.00 in 0.00 W/m2
06:39 48.2 °F 31.9 °F 29.92 in ESE 1.0 mph 9.0 mph 53% 0.00 in 0.00 W/m2
06:44 48.3 °F 32.0 °F 29.92 in ESE 1.0 mph 9.0 mph 53% 0.00 in 0.00 W/m2
06:49 48.5 °F 31.7 °F 29.92 in Calm   8.0 mph 52% 0.00 in 5.00 W/m2
06:54 48.5 °F 32.2 °F 29.92 in ESE 5.0 mph 8.0 mph 53% 0.00 in 7.00 W/m2
06:59 48.6 °F 32.3 °F 29.92 in East 9.0 mph 16.0 mph 53% 0.00 in 9.00 W/m2
07:04 48.6 °F 31.8 °F 29.92 in Calm   8.0 mph 52% 0.00 in 12.00 W/m2
07:14 48.8 °F 32.0 °F 29.92 in East 1.0 mph 12.0 mph 52% 0.00 in 18.00 W/m2
07:19 48.9 °F 31.6 °F 29.92 in Calm   9.0 mph 51% 0.00 in 25.00 W/m2
07:24 49.0 °F 32.2 °F 29.93 in Calm   20.0 mph 52% 0.00 in 37.00 W/m2
07:29 49.1 °F 32.2 °F 29.93 in Calm   11.0 mph 52% 0.00 in 53.00 W/m2
07:34 49.2 °F 32.3 °F 29.93 in East 1.0 mph 15.0 mph 52% 0.00 in 67.00 W/m2
07:39 49.3 °F 32.4 °F 29.93 in East 9.0 mph 12.0 mph 52% 0.00 in 83.00 W/m2
07:44 49.5 °F 32.1 °F 29.93 in Calm   12.0 mph 51% 0.00 in 98.00 W/m2
07:49 49.6 °F 32.2 °F 29.93 in East 2.0 mph 9.0 mph 51% 0.00 in 116.00 W/m2
07:54 49.9 °F 32.5 °F 29.93 in East 1.0 mph 14.0 mph 51% 0.00 in 135.00 W/m2
07:59 50.1 °F 32.7 °F 29.93 in East 6.0 mph 15.0 mph 51% 0.00 in 156.00 W/m2
08:04 50.3 °F 32.9 °F 29.93 in East 5.0 mph 15.0 mph 51% 0.00 in 174.00 W/m2
08:09 50.5 °F 33.1 °F 29.93 in East 5.0 mph 16.0 mph 51% 0.00 in 197.00 W/m2
08:14 50.8 °F 32.8 °F 29.93 in ESE 11.0 mph 23.0 mph 50% 0.00 in 218.00 W/m2
08:19 51.1 °F 33.1 °F 29.93 in ESE 5.0 mph 8.0 mph 50% 0.00 in 243.00 W/m2
08:25 51.4 °F 33.4 °F 29.93 in East 5.0 mph 14.0 mph 50% 0.00 in 267.00 W/m2
08:30 51.7 °F 33.2 °F 29.93 in Calm   9.0 mph 49% 0.00 in 279.00 W/m2
08:34 52.0 °F 33.5 °F 29.93 in Calm   14.0 mph 49% 0.00 in 297.00 W/m2
08:40 52.3 °F 33.7 °F 29.93 in East 1.0 mph 15.0 mph 49% 0.00 in 318.00 W/m2
08:45 52.6 °F 33.5 °F 29.93 in Calm   11.0 mph 48% 0.00 in 332.00 W/m2
08:50 53.0 °F 33.8 °F 29.93 in East 1.0 mph 14.0 mph 48% 0.00 in 353.00 W/m2
08:55 53.4 °F 34.2 °F 29.93 in East 1.0 mph 12.0 mph 48% 0.00 in 364.00 W/m2
09:00 53.7 °F 33.4 °F 29.93 in Calm   14.0 mph 46% 0.00 in 385.00 W/m2
09:05 54.0 °F 33.7 °F 29.93 in Calm   14.0 mph 46% 0.00 in 399.00 W/m2
09:10 54.2 °F 33.9 °F 29.93 in Calm   14.0 mph 46% 0.00 in 413.00 W/m2
09:15 54.7 °F 33.8 °F 29.94 in East 8.0 mph 13.0 mph 45% 0.00 in 427.00 W/m2
09:20 55.1 °F 33.6 °F 29.94 in ESE 2.0 mph 11.0 mph 44% 0.00 in 443.00 W/m2
09:25 55.3 °F 33.8 °F 29.94 in Calm   15.0 mph 44% 0.00 in 457.00 W/m2
09:30 55.7 °F 34.1 °F 29.94 in ESE 1.0 mph 14.0 mph 44% 0.00 in 475.00 W/m2
09:35 56.0 °F 33.8 °F 29.94 in Calm   9.0 mph 43% 0.00 in 489.00 W/m2
09:40 56.4 °F 34.2 °F 29.94 in Calm   11.0 mph 43% 0.00 in 503.00 W/m2
09:45 56.7 °F 34.5 °F 29.94 in ENE 7.0 mph 18.0 mph 43% 0.00 in 515.00 W/m2
09:50 56.9 °F 34.1 °F 29.94 in ESE 4.0 mph 13.0 mph 42% 0.00 in 529.00 W/m2
09:55 57.3 °F 33.8 °F 29.94 in ENE 1.0 mph 24.0 mph 41% 0.00 in 541.00 W/m2
10:00 57.5 °F 33.4 °F 29.94 in ESE 1.0 mph 12.0 mph 40% 0.00 in 554.00 W/m2
10:05 57.9 °F 33.8 °F 29.94 in East 6.0 mph 13.0 mph 40% 0.00 in 563.00 W/m2
10:10 58.3 °F 34.1 °F 29.94 in Calm   13.0 mph 40% 0.00 in 582.00 W/m2
10:15 58.7 °F 33.2 °F 29.94 in ESE 8.0 mph 12.0 mph 38% 0.00 in 589.00 W/m2
10:20 59.0 °F 33.5 °F 29.94 in ESE 5.0 mph 15.0 mph 38% 0.00 in 603.00 W/m2
10:25 59.2 °F 33.0 °F 29.94 in East 1.0 mph 14.0 mph 37% 0.00 in 619.00 W/m2
10:30 59.5 °F 33.9 °F 29.95 in SE 4.0 mph 12.0 mph 38% 0.00 in 626.00 W/m2
10:35 59.7 °F 34.7 °F 29.95 in Calm   11.0 mph 39% 0.00 in 638.00 W/m2
10:40 59.9 °F 35.5 °F 29.95 in Calm   6.0 mph 40% 0.00 in 647.00 W/m2
10:45 60.1 °F 35.7 °F 29.95 in SE 6.0 mph 12.0 mph 40% 0.00 in 657.00 W/m2
10:50 60.4 °F 34.7 °F 29.95 in East 10.0 mph 10.0 mph 38% 0.00 in 666.00 W/m2
10:55 60.7 °F 33.6 °F 29.95 in East 4.0 mph 11.0 mph 36% 0.00 in 679.00 W/m2
11:00 60.9 °F 34.5 °F 29.95 in Calm   6.0 mph 37% 0.00 in 686.00 W/m2
11:05 61.2 °F 33.3 °F 29.95 in Calm   12.0 mph 35% 0.00 in 696.00 W/m2
11:10 61.5 °F 33.6 °F 29.95 in Calm   6.0 mph 35% 0.00 in 705.00 W/m2
11:15 61.8 °F 33.2 °F 29.95 in SE 1.0 mph 11.0 mph 34% 0.00 in 710.00 W/m2
11:20 62.1 °F 32.7 °F 29.95 in SE 5.0 mph 5.0 mph 33% 0.00 in 719.00 W/m2
11:25 62.3 °F 32.1 °F 29.95 in SE 4.0 mph 9.0 mph 32% 0.00 in 728.00 W/m2
11:30 62.6 °F 30.8 °F 29.95 in Calm   6.0 mph 30% 0.00 in 737.00 W/m2
11:35 63.0 °F 30.3 °F 29.95 in Calm   5.0 mph 29% 0.00 in 740.00 W/m2
11:40 63.3 °F 31.4 °F 29.95 in SE 4.0 mph 6.0 mph 30% 0.00 in 747.00 W/m2
11:45 63.6 °F 30.8 °F 29.95 in SSE 4.0 mph 6.0 mph 29% 0.00 in 752.00 W/m2
11:50 63.9 °F 29.3 °F 29.95 in Calm   9.0 mph 27% 0.00 in 758.00 W/m2
11:55 64.3 °F 28.7 °F 29.95 in SE 7.0 mph 9.0 mph 26% 0.00 in 758.00 W/m2
12:00 64.6 °F 29.0 °F 29.95 in Calm   9.0 mph 26% 0.00 in 761.00 W/m2
12:05 64.9 °F 29.2 °F 29.95 in Calm   5.0 mph 26% 0.00 in 770.00 W/m2
12:10 65.1 °F 29.4 °F 29.94 in SE 1.0 mph 6.0 mph 26% 0.00 in 775.00 W/m2
12:15 65.3 °F 29.6 °F 29.94 in Calm   12.0 mph 26% 0.00 in 779.00 W/m2
12:20 65.6 °F 29.8 °F 29.94 in Calm   8.0 mph 26% 0.00 in 782.00 W/m2
12:25 65.8 °F 30.9 °F 29.95 in Calm   6.0 mph 27% 0.00 in 784.00 W/m2
12:30 66.0 °F 29.2 °F 29.94 in ESE 9.0 mph 12.0 mph 25% 0.00 in 784.00 W/m2
12:35 66.3 °F 30.4 °F 29.94 in Calm   7.0 mph 26% 0.00 in 786.00 W/m2
12:41 66.3 °F 31.4 °F 29.94 in Calm   5.0 mph 27% 0.00 in 788.00 W/m2
12:46 66.4 °F 30.5 °F 29.94 in Calm   6.0 mph 26% 0.00 in 788.00 W/m2
12:51 66.5 °F 30.6 °F 29.94 in Calm   4.0 mph 26% 0.00 in 789.00 W/m2
12:56 66.7 °F 29.8 °F 29.94 in Calm   10.0 mph 25% 0.00 in 791.00 W/m2
13:01 66.9 °F 29.0 °F 29.94 in Calm   12.0 mph 24% 0.00 in 788.00 W/m2
13:06 67.2 °F 30.2 °F 29.94 in Calm   5.0 mph 25% 0.00 in 789.00 W/m2
13:11 67.6 °F 30.6 °F 29.94 in Calm   5.0 mph 25% 0.00 in 786.00 W/m2
13:16 67.9 °F 28.8 °F 29.94 in Calm   18.0 mph 23% 0.00 in 786.00 W/m2
13:21 67.9 °F 29.8 °F 29.94 in Calm   4.0 mph 24% 0.00 in 780.00 W/m2
13:26 68.0 °F 30.9 °F 29.94 in ESE 1.0 mph 10.0 mph 25% 0.00 in 779.00 W/m2
13:31 68.3 °F 30.1 °F 29.94 in SSE 4.0 mph 7.0 mph 24% 0.00 in 773.00 W/m2
13:36 68.5 °F 29.3 °F 29.93 in Calm   8.0 mph 23% 0.00 in 770.00 W/m2
13:41 68.7 °F 30.5 °F 29.93 in SE 6.0 mph 9.0 mph 24% 0.00 in 766.00 W/m2
13:46 69.0 °F 30.7 °F 29.94 in Calm   6.0 mph 24% 0.00 in 765.00 W/m2
13:51 69.3 °F 29.9 °F 29.94 in NNW 1.0 mph 5.0 mph 23% 0.00 in 761.00 W/m2
13:56 68.6 °F 30.4 °F 29.94 in Calm   2.0 mph 24% 0.00 in 756.00 W/m2
14:01 68.1 °F 28.9 °F 29.94 in NNE 4.0 mph 8.0 mph 23% 0.00 in 747.00 W/m2
14:06 67.3 °F 29.3 °F 29.94 in North 1.0 mph 7.0 mph 24% 0.00 in 751.00 W/m2
14:11 66.9 °F 30.0 °F 29.93 in Calm   7.0 mph 25% 0.00 in 742.00 W/m2
14:16 67.1 °F 32.0 °F 29.93 in Calm   4.0 mph 27% 0.00 in 740.00 W/m2
14:21 67.4 °F 31.4 °F 29.93 in SSW 3.0 mph 7.0 mph 26% 0.00 in 782.00 W/m2
14:26 67.8 °F 31.7 °F 29.93 in ESE 5.0 mph 7.0 mph 26% 0.00 in 777.00 W/m2
14:31 68.2 °F 31.1 °F 29.93 in Calm   10.0 mph 25% 0.00 in 726.00 W/m2
14:36 68.7 °F 30.5 °F 29.93 in ESE 1.0 mph 5.0 mph 24% 0.00 in 717.00 W/m2
14:41 69.0 °F 30.7 °F 29.93 in Calm   7.0 mph 24% 0.00 in 729.00 W/m2
14:46 68.9 °F 30.6 °F 29.93 in East 5.0 mph 13.0 mph 24% 0.00 in 707.00 W/m2
14:51 69.0 °F 31.8 °F 29.93 in Calm   8.0 mph 25% 0.00 in 714.00 W/m2
14:56 69.1 °F 31.8 °F 29.92 in Calm   11.0 mph 25% 0.00 in 722.00 W/m2
15:01 69.1 °F 32.8 °F 29.92 in East 1.0 mph 8.0 mph 26% 0.00 in 84.00 W/m2
15:06 68.9 °F 32.6 °F 29.93 in Calm   8.0 mph 26% 0.00 in 636.00 W/m2
15:11 68.8 °F 32.5 °F 29.93 in Calm   7.0 mph 26% 0.00 in 671.00 W/m2
15:16 68.8 °F 33.5 °F 29.92 in Calm   2.0 mph 27% 0.00 in 642.00 W/m2
15:21 68.6 °F 32.4 °F 29.92 in Calm   6.0 mph 26% 0.00 in 97.00 W/m2
15:26 68.3 °F 33.1 °F 29.92 in Calm   7.0 mph 27% 0.00 in 98.00 W/m2
15:31 68.0 °F 31.9 °F 29.92 in Calm   6.0 mph 26% 0.00 in 592.00 W/m2
15:36 67.7 °F 32.5 °F 29.92 in Calm   2.0 mph 27% 0.00 in 578.00 W/m2
15:41 67.5 °F 33.3 °F 29.92 in Calm   5.0 mph 28% 0.00 in 570.00 W/m2
15:46 67.3 °F 33.1 °F 29.92 in West 4.0 mph 9.0 mph 28% 0.00 in 543.00 W/m2
15:51 67.3 °F 34.0 °F 29.92 in Calm   9.0 mph 29% 0.00 in 533.00 W/m2
15:56 67.3 °F 34.0 °F 29.92 in West 6.0 mph 15.0 mph 29% 0.00 in 519.00 W/m2
16:01 67.2 °F 33.9 °F 29.92 in NW 5.0 mph 9.0 mph 29% 0.00 in 497.00 W/m2
16:06 67.1 °F 33.8 °F 29.92 in Calm   9.0 mph 29% 0.00 in 492.00 W/m2
16:11 67.1 °F 33.8 °F 29.92 in WNW 8.0 mph 10.0 mph 29% 0.00 in 473.00 W/m2
16:16 67.0 °F 33.7 °F 29.92 in NW 1.0 mph 11.0 mph 29% 0.00 in 454.00 W/m2
16:21 67.0 °F 34.6 °F 29.92 in WNW 6.0 mph 11.0 mph 30% 0.00 in 441.00 W/m2
16:26 66.9 °F 34.5 °F 29.92 in NNW 1.0 mph 10.0 mph 30% 0.00 in 429.00 W/m2
16:31 66.8 °F 34.4 °F 29.92 in Calm   14.0 mph 30% 0.00 in 413.00 W/m2
16:36 66.8 °F 34.4 °F 29.92 in Calm   10.0 mph 30% 0.00 in 394.00 W/m2
16:41 66.7 °F 34.3 °F 29.92 in West 6.0 mph 8.0 mph 30% 0.00 in 378.00 W/m2
16:46 66.6 °F 34.2 °F 29.92 in Calm   8.0 mph 30% 0.00 in 367.00 W/m2
16:51 66.5 °F 35.0 °F 29.92 in NW 5.0 mph 14.0 mph 31% 0.00 in 353.00 W/m2
16:56 66.4 °F 34.0 °F 29.92 in NNW 7.0 mph 15.0 mph 30% 0.00 in 336.00 W/m2
17:01 66.4 °F 34.9 °F 29.92 in Calm   11.0 mph 31% 0.00 in 318.00 W/m2
17:06 66.4 °F 34.9 °F 29.92 in WSW 5.0 mph 11.0 mph 31% 0.00 in 306.00 W/m2
17:11 66.2 °F 34.7 °F 29.92 in Calm   11.0 mph 31% 0.00 in 290.00 W/m2
17:16 65.9 °F 34.4 °F 29.92 in Calm   8.0 mph 31% 0.00 in 274.00 W/m2
17:21 65.8 °F 35.2 °F 29.92 in Calm   11.0 mph 32% 0.00 in 257.00 W/m2
17:26 65.6 °F 34.2 °F 29.92 in WNW 4.0 mph 9.0 mph 31% 0.00 in 234.00 W/m2
17:31 65.5 °F 34.9 °F 29.92 in Calm   6.0 mph 32% 0.00 in 227.00 W/m2
17:35 65.3 °F 34.7 °F 29.92 in WNW 3.0 mph 9.0 mph 32% 0.00 in 209.00 W/m2
17:40 65.1 °F 34.5 °F 29.92 in NW 5.0 mph 12.0 mph 32% 0.00 in 193.00 W/m2
17:46 64.9 °F 34.4 °F 29.92 in Calm   12.0 mph 32% 0.00 in 174.00 W/m2
17:51 64.6 °F 34.1 °F 29.92 in Calm   5.0 mph 32% 0.00 in 153.00 W/m2
17:56 64.4 °F 34.7 °F 29.92 in Calm   7.0 mph 33% 0.00 in 137.00 W/m2
18:01 64.2 °F 34.5 °F 29.92 in Calm     33% 0.00 in 116.00 W/m2
18:06 64.1 °F 33.7 °F 29.92 in West 1.0 mph 5.0 mph 32% 0.00 in 97.00 W/m2
18:11 63.9 °F 34.3 °F 29.92 in WNW 4.0 mph 6.0 mph 33% 0.00 in 76.00 W/m2
18:16 63.8 °F 34.2 °F 29.92 in Calm   3.0 mph 33% 0.00 in 67.00 W/m2
18:21 63.7 °F 34.1 °F 29.92 in NW 3.0 mph 5.0 mph 33% 0.00 in 49.00 W/m2
18:26 63.5 °F 34.7 °F 29.92 in Calm     34% 0.00 in 40.00 W/m2
18:31 63.4 °F 34.6 °F 29.92 in Calm     34% 0.00 in 30.00 W/m2
18:36 63.2 °F 35.1 °F 29.92 in Calm   1.0 mph 35% 0.00 in 21.00 W/m2
18:41 62.9 °F 34.8 °F 29.92 in NW 1.0 mph 5.0 mph 35% 0.00 in 16.00 W/m2
18:46 62.7 °F 35.4 °F 29.92 in NW 1.0 mph 1.0 mph 36% 0.00 in 12.00 W/m2
18:51 62.5 °F 35.2 °F 29.92 in Calm     36% 0.00 in 11.00 W/m2
18:56 62.3 °F 35.0 °F 29.93 in Calm     36% 0.00 in 7.00 W/m2
19:01 62.0 °F 34.8 °F 29.93 in Calm     36% 0.00 in 5.00 W/m2
19:16 61.1 °F 35.3 °F 29.93 in Calm     38% 0.00 in 0.00 W/m2
19:21 60.8 °F 35.1 °F 29.93 in Calm     38% 0.00 in 0.00 W/m2
19:26 60.3 °F 34.6 °F 29.93 in Calm     38% 0.00 in 0.00 W/m2
19:31 59.8 °F 34.8 °F 29.93 in Calm     39% 0.00 in 0.00 W/m2
19:36 59.5 °F 34.5 °F 29.93 in Calm     39% 0.00 in 0.00 W/m2
19:37 59.4 °F 34.5 °F 29.93 in Calm     39% 0.00 in 0.00 W/m2
19:42 59.0 °F 34.7 °F 29.93 in Calm     40% 0.00 in 0.00 W/m2
19:47 58.6 °F 34.4 °F 29.93 in Calm     40% 0.00 in 0.00 W/m2
19:52 58.2 °F 34.0 °F 29.93 in Calm     40% 0.00 in 0.00 W/m2
19:57 57.8 °F 34.3 °F 29.94 in Calm     41% 0.00 in 0.00 W/m2
20:02 57.3 °F 33.8 °F 29.94 in Calm     41% 0.00 in 0.00 W/m2
20:07 57.1 °F 34.2 °F 29.94 in Calm     42% 0.00 in 0.00 W/m2
20:14 56.7 °F 34.5 °F 29.94 in Calm     43% 0.00 in 0.00 W/m2
20:19 56.4 °F 34.2 °F 29.94 in Calm     43% 0.00 in 0.00 W/m2
20:21 56.3 °F 34.7 °F 29.94 in Calm     44% 0.00 in 0.00 W/m2
20:23 56.2 °F 34.6 °F 29.94 in Calm     44% 0.00 in 0.00 W/m2
20:26 56.2 °F 34.6 °F 29.94 in NE 4.0 mph 4.0 mph 44% 0.00 in 0.00 W/m2
20:31 56.0 °F 35.0 °F 29.94 in ENE 3.0 mph 6.0 mph 45% 0.00 in 0.00 W/m2
20:36 55.9 °F 34.9 °F 29.94 in Calm     45% 0.00 in 0.00 W/m2
20:41 55.8 °F 34.2 °F 29.94 in ENE 5.0 mph 5.0 mph 44% 0.00 in 0.00 W/m2
20:51 55.9 °F 34.3 °F 29.95 in Calm   4.0 mph 44% 0.00 in 0.00 W/m2
20:56 55.9 °F 34.3 °F 29.94 in ENE 2.0 mph 5.0 mph 44% 0.00 in 0.00 W/m2
21:01 56.0 °F 33.8 °F 29.94 in Calm   5.0 mph 43% 0.00 in 0.00 W/m2
21:06 56.1 °F 33.3 °F 29.94 in East 5.0 mph 6.0 mph 42% 0.00 in 0.00 W/m2
21:11 56.2 °F 32.8 °F 29.94 in East 3.0 mph 6.0 mph 41% 0.00 in 0.00 W/m2
21:16 56.2 °F 32.8 °F 29.94 in East 3.0 mph 6.0 mph 41% 0.00 in 0.00 W/m2
21:21 56.3 °F 32.9 °F 29.94 in Calm   3.0 mph 41% 0.00 in 0.00 W/m2
21:26 56.3 °F 32.3 °F 29.94 in East 4.0 mph 7.0 mph 40% 0.00 in 0.00 W/m2
21:31 56.3 °F 32.3 °F 29.94 in Calm   7.0 mph 40% 0.00 in 0.00 W/m2
21:36 56.3 °F 31.7 °F 29.94 in Calm   4.0 mph 39% 0.00 in 0.00 W/m2
21:41 56.3 °F 31.7 °F 29.94 in Calm   7.0 mph 39% 0.00 in 0.00 W/m2
21:47 56.3 °F 31.7 °F 29.94 in East 6.0 mph 7.0 mph 39% 0.00 in 0.00 W/m2
21:52 56.3 °F 31.0 °F 29.94 in East 2.0 mph 7.0 mph 38% 0.00 in 0.00 W/m2
21:57 56.3 °F 31.7 °F 29.94 in Calm   9.0 mph 39% 0.00 in 0.00 W/m2
22:02 56.3 °F 32.3 °F 29.94 in ESE 7.0 mph 9.0 mph 40% 0.00 in 0.00 W/m2
22:07 56.2 °F 32.2 °F 29.94 in ESE 11.0 mph 15.0 mph 40% 0.00 in 0.00 W/m2
22:12 56.2 °F 32.2 °F 29.94 in East 6.0 mph 9.0 mph 40% 0.00 in 0.00 W/m2
22:17 56.1 °F 32.1 °F 29.94 in East 5.0 mph 9.0 mph 40% 0.00 in 0.00 W/m2
22:22 56.0 °F 32.0 °F 29.94 in Calm   12.0 mph 40% 0.00 in 0.00 W/m2
22:27 56.0 °F 32.0 °F 29.94 in Calm   6.0 mph 40% 0.00 in 0.00 W/m2
22:32 55.9 °F 31.3 °F 29.94 in ESE 5.0 mph 7.0 mph 39% 0.00 in 0.00 W/m2
22:37 55.9 °F 32.0 °F 29.94 in Calm   11.0 mph 40% 0.00 in 0.00 W/m2
22:42 55.9 °F 31.3 °F 29.94 in ESE 5.0 mph 13.0 mph 39% 0.00 in 0.00 W/m2
22:47 55.9 °F 31.3 °F 29.94 in East 7.0 mph 7.0 mph 39% 0.00 in 0.00 W/m2
22:52 55.9 °F 31.3 °F 29.94 in East 6.0 mph 9.0 mph 39% 0.00 in 0.00 W/m2
22:57 55.9 °F 31.3 °F 29.94 in East 6.0 mph 8.0 mph 39% 0.00 in 0.00 W/m2
23:02 55.8 °F 31.2 °F 29.94 in Calm   11.0 mph 39% 0.00 in 0.00 W/m2
23:07 55.8 °F 31.2 °F 29.94 in East 5.0 mph 11.0 mph 39% 0.00 in 0.00 W/m2
23:12 55.8 °F 30.6 °F 29.94 in ESE 2.0 mph 13.0 mph 38% 0.00 in 0.00 W/m2
23:17 55.9 °F 31.3 °F 29.94 in East 12.0 mph 12.0 mph 39% 0.00 in 0.00 W/m2
23:22 55.8 °F 30.6 °F 29.94 in ENE 8.0 mph 13.0 mph 38% 0.00 in 0.00 W/m2
23:27 55.9 °F 30.7 °F 29.94 in East 8.0 mph 8.0 mph 38% 0.00 in 0.00 W/m2
23:32 56.0 °F 30.1 °F 29.94 in ENE 6.0 mph 8.0 mph 37% 0.00 in 0.00 W/m2
23:37 56.1 °F 30.9 °F 29.94 in Calm   8.0 mph 38% 0.00 in 0.00 W/m2
23:42 56.2 °F 30.3 °F 29.94 in East 1.0 mph 13.0 mph 37% 0.00 in 0.00 W/m2
23:47 56.2 °F 30.3 °F 29.94 in ESE 8.0 mph 8.0 mph 37% 0.00 in 0.00 W/m2
23:52 56.3 °F 30.4 °F 29.94 in East 6.0 mph 7.0 mph 37% 0.00 in 0.00 W/m2
23:57 56.3 °F 30.4 °F 29.94 in ESE 4.0 mph 13.0 mph 37% 0.00 in 0.00 W/m2
Foresthill Weather
 WU-history PHP script courtesy of   Juneau County Weather.
powered by Cumulus v1.9.3 (1059)
Ambient Weather VWS v14.00
Top Contact Website Map Copyright © 2007 - 2018 Foresthillweather.com Never base important decisions on this or any weather information obtained from the Internet